createdAt,value
2019-05-01T00:01:18.678Z,3.20
2019-05-01T00:03:57.901Z,2.77
2019-05-01T00:06:31.111Z,3.30
2019-05-01T00:08:59.897Z,3.80
2019-05-01T00:11:28.707Z,2.70
2019-05-01T00:13:57.589Z,3.23
2019-05-01T00:16:26.584Z,3.33
2019-05-01T00:18:55.322Z,3.23
2019-05-01T00:21:24.568Z,3.50
2019-05-01T00:23:53.343Z,2.63
2019-05-01T00:26:22.393Z,3.23
2019-05-01T00:28:51.349Z,3.00
2019-05-01T00:31:20.229Z,2.80
2019-05-01T00:33:49.225Z,2.77
2019-05-01T00:36:18.021Z,3.30
2019-05-01T00:38:46.917Z,3.40
2019-05-01T00:41:15.769Z,3.53
2019-05-01T00:43:44.916Z,3.00
2019-05-01T00:46:13.792Z,3.20
2019-05-01T00:48:42.638Z,2.67
2019-05-01T00:51:11.781Z,2.90
2019-05-01T00:53:40.675Z,3.63
2019-05-01T00:56:11.183Z,3.37
2019-05-01T00:58:41.718Z,3.83
2019-05-01T01:01:28.434Z,3.90
2019-05-01T01:03:57.542Z,4.20
2019-05-01T01:06:26.536Z,4.00
2019-05-01T01:08:55.524Z,3.73
2019-05-01T01:11:24.422Z,3.80
2019-05-01T01:13:53.314Z,4.37
2019-05-01T01:16:22.233Z,5.00
2019-05-01T01:18:51.197Z,5.00
2019-05-01T01:21:20.297Z,4.87
2019-05-01T01:23:49.732Z,4.93
2019-05-01T01:26:18.999Z,4.40
2019-05-01T01:28:48.000Z,4.90
2019-05-01T01:31:16.988Z,4.27
2019-05-01T01:33:46.078Z,3.90
2019-05-01T01:36:16.713Z,5.10
2019-05-01T01:38:45.534Z,4.67
2019-05-01T01:41:14.530Z,4.57
2019-05-01T01:43:57.319Z,4.40
2019-05-01T01:46:33.660Z,5.33
2019-05-01T01:49:02.880Z,5.23
2019-05-01T01:51:31.828Z,5.50
2019-05-01T01:54:01.067Z,4.43
2019-05-01T01:56:30.066Z,5.10
2019-05-01T01:58:59.074Z,4.60
2019-05-01T02:01:38.478Z,4.53
2019-05-01T02:04:09.049Z,5.80
2019-05-01T02:06:37.890Z,5.50
2019-05-01T02:09:08.075Z,5.50
2019-05-01T02:11:37.126Z,5.13
2019-05-01T02:14:06.058Z,5.30
2019-05-01T02:16:35.028Z,6.13
2019-05-01T02:19:05.374Z,5.83
2019-05-01T02:21:37.301Z,5.27
2019-05-01T02:24:06.216Z,5.93
2019-05-01T02:26:42.890Z,5.23
2019-05-01T02:29:16.279Z,5.40
2019-05-01T02:31:47.954Z,5.43
2019-05-01T02:34:19.310Z,5.43
2019-05-01T02:36:49.916Z,5.13
2019-05-01T02:39:20.211Z,5.67
2019-05-01T02:41:51.979Z,6.57
2019-05-01T02:44:26.535Z,6.03
2019-05-01T02:46:58.529Z,5.57
2019-05-01T02:49:36.590Z,5.53
2019-05-01T02:52:07.607Z,5.23
2019-05-01T02:54:38.049Z,6.00
2019-05-01T02:57:15.440Z,5.87
2019-05-01T02:59:47.292Z,5.93
2019-05-01T03:02:17.212Z,6.67
2019-05-01T03:04:46.870Z,6.20
2019-05-01T03:07:17.674Z,6.27
2019-05-01T03:09:47.420Z,6.33
2019-05-01T03:12:19.459Z,6.67
2019-05-01T03:14:50.994Z,6.17
2019-05-01T03:17:34.919Z,6.33
2019-05-01T03:20:06.106Z,6.40
2019-05-01T03:22:51.627Z,6.60
2019-05-01T03:25:20.762Z,6.73
2019-05-01T03:27:50.001Z,6.77
2019-05-01T03:30:19.069Z,6.53
2019-05-01T03:32:48.072Z,7.43
2019-05-01T03:35:17.063Z,7.00
2019-05-01T03:37:47.081Z,7.73
2019-05-01T03:40:16.045Z,6.63
2019-05-01T03:42:45.207Z,7.47
2019-05-01T03:45:15.457Z,7.53
2019-05-01T03:47:44.806Z,7.70
2019-05-01T03:50:13.578Z,7.87
2019-05-01T03:52:42.682Z,7.83
2019-05-01T03:55:11.746Z,7.07
2019-05-01T03:57:40.567Z,8.67
2019-05-01T04:00:11.115Z,8.50
2019-05-01T04:02:47.239Z,9.10
2019-05-01T04:05:16.346Z,8.93
2019-05-01T04:07:45.526Z,9.17
2019-05-01T04:10:14.549Z,8.80
2019-05-01T04:12:43.537Z,9.23
2019-05-01T04:15:12.915Z,9.27
2019-05-01T04:17:43.808Z,9.57
2019-05-01T04:20:12.663Z,10.53
2019-05-01T04:22:41.538Z,9.90
2019-05-01T04:25:10.415Z,10.13
2019-05-01T04:27:41.018Z,10.27
2019-05-01T04:30:17.401Z,10.57
2019-05-01T04:32:52.417Z,11.10
2019-05-01T04:35:36.531Z,10.90
2019-05-01T04:38:05.422Z,11.10
2019-05-01T04:40:34.278Z,11.33
2019-05-01T04:43:03.161Z,13.30
2019-05-01T04:45:32.150Z,12.00
2019-05-01T04:48:01.888Z,10.67
2019-05-01T04:50:30.721Z,12.10
2019-05-01T04:53:00.007Z,12.00
2019-05-01T04:55:28.998Z,12.30
2019-05-01T04:57:57.849Z,12.83
2019-05-01T05:00:26.737Z,11.97
2019-05-01T05:03:04.483Z,11.87
2019-05-01T05:05:27.633Z,12.90
2019-05-01T05:07:56.532Z,12.57
2019-05-01T05:10:25.470Z,13.30
2019-05-01T05:13:02.410Z,13.03
2019-05-01T05:15:33.359Z,13.37
2019-05-01T05:18:02.859Z,13.10
2019-05-01T05:20:31.940Z,14.00
2019-05-01T05:23:00.951Z,13.93
2019-05-01T05:25:29.947Z,13.77
2019-05-01T05:27:59.199Z,14.27
2019-05-01T05:30:29.211Z,15.00
2019-05-01T05:32:59.133Z,13.43
2019-05-01T05:35:29.673Z,15.10
2019-05-01T05:38:03.011Z,14.13
2019-05-01T05:40:34.462Z,13.67
2019-05-01T05:43:04.230Z,14.17
2019-05-01T05:45:35.277Z,14.97
2019-05-01T05:48:04.259Z,15.93
2019-05-01T05:50:53.660Z,14.27
2019-05-01T05:53:26.942Z,15.97
2019-05-01T05:56:02.980Z,15.37
2019-05-01T05:58:48.712Z,14.80
2019-05-01T06:01:36.957Z,15.00
2019-05-01T06:04:18.848Z,15.10
2019-05-01T06:07:00.729Z,15.23
2019-05-01T06:09:37.213Z,14.57
2019-05-01T06:12:10.423Z,15.43
2019-05-01T06:14:42.505Z,16.57
2019-05-01T06:17:28.525Z,15.67
2019-05-01T06:20:02.855Z,16.07
2019-05-01T06:22:33.594Z,16.37
2019-05-01T06:25:07.305Z,17.20
2019-05-01T06:27:36.624Z,16.77
2019-05-01T06:30:11.029Z,16.80
2019-05-01T06:32:40.021Z,17.40
2019-05-01T06:35:10.842Z,17.50
2019-05-01T06:38:00.648Z,16.97
2019-05-01T06:40:44.496Z,17.20
2019-05-01T06:43:20.126Z,15.53
2019-05-01T06:45:51.667Z,18.30
2019-05-01T06:48:25.316Z,18.77
2019-05-01T06:50:58.894Z,18.03
2019-05-01T06:53:28.678Z,17.70
2019-05-01T06:55:57.660Z,16.50
2019-05-01T06:58:26.584Z,17.70
2019-05-01T07:00:55.612Z,17.50
2019-05-01T07:03:24.604Z,17.87
2019-05-01T07:05:55.974Z,18.50
2019-05-01T07:08:25.035Z,16.67
2019-05-01T07:10:55.436Z,17.13
2019-05-01T07:13:25.975Z,18.73
2019-05-01T07:15:58.753Z,19.17
2019-05-01T07:18:29.083Z,17.43
2019-05-01T07:20:55.925Z,17.73
2019-05-01T07:23:24.821Z,17.77
2019-05-01T07:25:54.180Z,17.40
2019-05-01T07:28:24.068Z,18.63
2019-05-01T07:30:55.198Z,18.03
2019-05-01T07:33:25.471Z,16.87
2019-05-01T07:35:54.604Z,17.97
2019-05-01T07:38:23.809Z,16.63
2019-05-01T07:40:53.500Z,18.33
2019-05-01T07:43:25.684Z,17.87
2019-05-01T07:46:02.197Z,16.90
2019-05-01T07:48:35.945Z,16.23
2019-05-01T07:51:07.072Z,17.50
2019-05-01T07:53:35.006Z,18.17
2019-05-01T07:56:04.357Z,17.03
2019-05-01T07:58:33.921Z,18.50
2019-05-01T08:01:18.128Z,18.33
2019-05-01T08:03:44.207Z,17.93
2019-05-01T08:06:16.233Z,16.57
2019-05-01T08:08:44.780Z,17.33
2019-05-01T08:11:13.785Z,18.37
2019-05-01T08:13:42.676Z,19.83
2019-05-01T08:16:11.575Z,19.03
2019-05-01T08:18:42.144Z,18.60
2019-05-01T08:21:21.223Z,19.70
2019-05-01T08:23:52.611Z,18.83
2019-05-01T08:26:21.590Z,20.00
2019-05-01T08:28:55.001Z,20.83
2019-05-01T08:31:29.266Z,20.50
2019-05-01T08:34:02.809Z,21.20
2019-05-01T08:36:31.724Z,21.53
2019-05-01T08:39:04.832Z,21.13
2019-05-01T08:41:33.130Z,22.53
2019-05-01T08:44:02.021Z,21.80
2019-05-01T08:46:41.823Z,22.93
2019-05-01T08:49:28.626Z,25.33
2019-05-01T08:51:57.493Z,23.33
2019-05-01T08:54:29.018Z,23.27
2019-05-01T08:56:57.980Z,23.20
2019-05-01T08:59:28.311Z,24.97
2019-05-01T09:02:08.936Z,23.80
2019-05-01T09:04:30.322Z,23.40
2019-05-01T09:06:59.242Z,24.23
2019-05-01T09:09:28.107Z,23.90
2019-05-01T09:11:56.879Z,24.30
2019-05-01T09:14:29.940Z,24.37
2019-05-01T09:16:56.801Z,24.77
2019-05-01T09:19:25.692Z,24.70
2019-05-01T09:21:54.591Z,22.67
2019-05-01T09:24:27.877Z,25.07
2019-05-01T09:27:01.787Z,25.23
2019-05-01T09:29:32.338Z,24.50
2019-05-01T09:32:04.980Z,24.77
2019-05-01T09:34:32.141Z,25.33
2019-05-01T09:37:00.925Z,24.17
2019-05-01T09:39:30.699Z,23.13
2019-05-01T09:42:23.199Z,22.67
2019-05-01T09:44:44.927Z,24.00
2019-05-01T09:47:15.244Z,24.73
2019-05-01T09:49:53.890Z,24.33
2019-05-01T09:52:23.384Z,22.77
2019-05-01T09:54:55.205Z,23.60
2019-05-01T09:57:24.138Z,22.67
2019-05-01T09:59:53.010Z,22.50
2019-05-01T10:02:21.905Z,21.27
2019-05-01T10:04:50.653Z,21.80
2019-05-01T10:07:23.882Z,23.03
2019-05-01T10:09:52.067Z,22.03
2019-05-01T10:12:22.103Z,21.37
2019-05-01T10:14:51.067Z,22.17
2019-05-01T10:17:19.765Z,21.77
2019-05-01T10:19:50.160Z,22.00
2019-05-01T10:22:19.121Z,19.30
2019-05-01T10:24:48.079Z,19.93
2019-05-01T10:27:18.507Z,20.77
2019-05-01T10:30:05.892Z,22.23
2019-05-01T10:32:39.494Z,21.13
2019-05-01T10:35:14.330Z,21.77
2019-05-01T10:37:43.342Z,20.03
2019-05-01T10:40:12.320Z,18.97
2019-05-01T10:42:41.278Z,20.13
2019-05-01T10:45:10.571Z,20.50
2019-05-01T10:47:39.540Z,21.80
2019-05-01T10:50:08.805Z,19.80
2019-05-01T10:52:38.413Z,18.17
2019-05-01T10:55:09.280Z,20.73
2019-05-01T10:57:42.111Z,18.90
2019-05-01T11:00:11.025Z,19.17
2019-05-01T11:02:39.958Z,17.80
2019-05-01T11:05:09.148Z,19.83
2019-05-01T11:07:38.074Z,17.43
2019-05-01T11:10:08.514Z,17.67
2019-05-01T11:12:37.354Z,18.07
2019-05-01T11:15:08.078Z,16.87
2019-05-01T11:17:36.900Z,17.27
2019-05-01T11:20:07.501Z,17.37
2019-05-01T11:22:36.775Z,16.97
2019-05-01T11:25:08.396Z,17.60
2019-05-01T11:27:37.638Z,17.37
2019-05-01T11:30:07.777Z,20.40
2019-05-01T11:32:56.572Z,17.50
2019-05-01T11:35:39.083Z,17.03
2019-05-01T11:38:12.178Z,16.10
2019-05-01T11:40:43.260Z,17.13
2019-05-01T11:43:12.117Z,17.17
2019-05-01T11:45:41.017Z,16.23
2019-05-01T11:48:09.893Z,17.13
2019-05-01T11:50:38.732Z,17.13
2019-05-01T11:53:07.602Z,16.27
2019-05-01T11:55:36.414Z,15.53
2019-05-01T11:58:05.323Z,14.57
2019-05-01T12:00:34.212Z,14.17
2019-05-01T12:03:02.976Z,14.80
2019-05-01T12:05:32.906Z,12.90
2019-05-01T12:08:01.910Z,12.47
2019-05-01T12:10:30.743Z,12.93
2019-05-01T12:12:59.595Z,13.03
2019-05-01T12:15:28.506Z,13.90
2019-05-01T12:17:57.405Z,13.20
2019-05-01T12:20:26.226Z,12.50
2019-05-01T12:22:55.192Z,12.27
2019-05-01T12:25:24.163Z,11.70
2019-05-01T12:27:53.051Z,12.70
2019-05-01T12:30:22.141Z,12.03
2019-05-01T12:32:50.986Z,10.97
2019-05-01T12:35:19.845Z,11.03
2019-05-01T12:37:48.886Z,12.43
2019-05-01T12:40:18.727Z,11.43
2019-05-01T12:42:47.606Z,12.23
2019-05-01T12:45:17.218Z,10.60
2019-05-01T12:47:57.063Z,10.87
2019-05-01T12:50:25.880Z,10.17
2019-05-01T12:52:57.975Z,10.93
2019-05-01T12:55:37.295Z,9.77
2019-05-01T12:58:06.130Z,10.13
2019-05-01T13:00:51.082Z,10.07
2019-05-01T13:03:20.958Z,10.57
2019-05-01T13:05:49.848Z,10.60
2019-05-01T13:08:19.077Z,9.60
2019-05-01T13:10:48.902Z,9.27
2019-05-01T13:13:18.011Z,9.97
2019-05-01T13:15:46.917Z,9.33
2019-05-01T13:18:17.372Z,8.40
2019-05-01T13:20:46.260Z,10.43
2019-05-01T13:23:15.141Z,9.47
2019-05-01T13:25:44.286Z,8.80
2019-05-01T13:28:17.184Z,8.93
2019-05-01T13:30:47.659Z,9.40
2019-05-01T13:33:16.581Z,9.70
2019-05-01T13:35:45.540Z,8.97
2019-05-01T13:38:14.531Z,8.03
2019-05-01T13:40:43.400Z,8.30
2019-05-01T13:43:12.225Z,8.87
2019-05-01T13:45:41.112Z,10.23
2019-05-01T13:48:09.889Z,9.67
2019-05-01T13:50:38.715Z,7.67
2019-05-01T13:53:07.566Z,7.53
2019-05-01T13:55:36.404Z,7.77
2019-05-01T13:58:05.270Z,8.03
2019-05-01T14:00:34.956Z,9.00
2019-05-01T14:03:03.780Z,9.23
2019-05-01T14:05:32.594Z,8.73
2019-05-01T14:08:01.506Z,8.87
2019-05-01T14:10:30.372Z,7.63
2019-05-01T14:12:59.119Z,8.23
2019-05-01T14:15:28.074Z,9.00
2019-05-01T14:17:56.853Z,8.93
2019-05-01T14:20:30.329Z,8.10
2019-05-01T14:23:09.469Z,8.47
2019-05-01T14:25:46.184Z,8.63
2019-05-01T14:28:15.038Z,8.47
2019-05-01T14:30:43.921Z,8.33
2019-05-01T14:33:12.753Z,8.03
2019-05-01T14:35:43.111Z,8.07
2019-05-01T14:38:12.002Z,7.60
2019-05-01T14:40:41.307Z,8.03
2019-05-01T14:43:10.136Z,7.33
2019-05-01T14:45:39.710Z,7.40
2019-05-01T14:48:08.659Z,7.93
2019-05-01T14:50:38.163Z,7.73
2019-05-01T14:53:06.962Z,6.83
2019-05-01T14:55:35.797Z,7.93
2019-05-01T14:58:04.826Z,7.20
2019-05-01T15:00:33.659Z,7.87
2019-05-01T15:03:02.816Z,6.67
2019-05-01T15:05:31.690Z,7.17
2019-05-01T15:08:01.598Z,6.93
2019-05-01T15:10:30.335Z,7.10
2019-05-01T15:13:00.796Z,6.80
2019-05-01T15:15:50.022Z,7.33
2019-05-01T15:18:26.266Z,6.67
2019-05-01T15:20:54.987Z,6.67
2019-05-01T15:23:23.835Z,5.87
2019-05-01T15:25:52.716Z,6.33
2019-05-01T15:28:21.544Z,5.30
2019-05-01T15:30:51.361Z,5.17
2019-05-01T15:33:20.253Z,5.23
2019-05-01T15:35:49.078Z,5.13
2019-05-01T15:38:18.753Z,4.80
2019-05-01T15:40:55.324Z,5.20
2019-05-01T15:43:25.735Z,4.80
2019-05-01T15:45:54.573Z,4.97
2019-05-01T15:48:23.902Z,4.53
2019-05-01T15:50:52.737Z,4.30
2019-05-01T15:53:21.557Z,4.10
2019-05-01T15:55:50.417Z,4.87
2019-05-01T15:58:19.339Z,4.87
2019-05-01T16:00:48.036Z,4.50
2019-05-01T16:03:16.921Z,4.37
2019-05-01T16:05:45.755Z,3.70
2019-05-01T16:08:15.526Z,4.37
2019-05-01T16:10:46.204Z,3.83
2019-05-01T16:13:14.930Z,3.83
2019-05-01T16:15:43.783Z,3.93
2019-05-01T16:18:12.618Z,3.57
2019-05-01T16:20:41.576Z,2.90
2019-05-01T16:23:10.360Z,3.20
2019-05-01T16:25:39.366Z,2.50
2019-05-01T16:28:08.194Z,3.10
2019-05-01T16:30:37.036Z,3.70
2019-05-01T16:33:06.117Z,3.17
2019-05-01T16:35:35.034Z,2.97
2019-05-01T16:38:05.415Z,2.93
2019-05-01T16:40:35.964Z,3.07
2019-05-01T16:43:08.031Z,2.83
2019-05-01T16:45:36.880Z,3.03
2019-05-01T16:48:06.404Z,2.83
2019-05-01T16:50:35.319Z,2.70
2019-05-01T16:53:04.314Z,2.60
2019-05-01T16:55:33.247Z,2.30
2019-05-01T16:58:02.410Z,3.40
2019-05-01T17:00:52.550Z,2.50
2019-05-01T17:03:28.687Z,2.07
2019-05-01T17:06:05.012Z,2.40
2019-05-01T17:08:53.197Z,2.33
2019-05-01T17:11:24.651Z,2.63
2019-05-01T17:13:53.461Z,2.83
2019-05-01T17:16:22.514Z,2.30
2019-05-01T17:18:51.398Z,3.20
2019-05-01T17:21:20.267Z,2.30
2019-05-01T17:23:49.110Z,1.90
2019-05-01T17:26:18.003Z,2.03
2019-05-01T17:28:46.937Z,2.13
2019-05-01T17:31:15.874Z,2.13
2019-05-01T17:33:55.390Z,2.37
2019-05-01T17:36:16.300Z,1.70
2019-05-01T17:38:49.821Z,1.70
2019-05-01T17:41:15.807Z,2.00
2019-05-01T17:43:44.844Z,1.67
2019-05-01T17:46:15.049Z,2.00
2019-05-01T17:48:44.485Z,2.07
2019-05-01T17:51:13.303Z,2.00
2019-05-01T17:53:42.222Z,2.00
2019-05-01T17:56:15.343Z,1.50
2019-05-01T17:58:41.743Z,1.73
2019-05-01T18:01:12.272Z,1.90
2019-05-01T18:03:44.023Z,1.77
2019-05-01T18:06:29.713Z,2.13
2019-05-01T18:09:03.230Z,1.90
2019-05-01T18:11:29.090Z,1.77
2019-05-01T18:13:57.939Z,1.97
2019-05-01T18:16:26.798Z,2.10
2019-05-01T18:18:55.626Z,2.07
2019-05-01T18:21:24.469Z,1.83
2019-05-01T18:24:03.938Z,1.77
2019-05-01T18:26:49.384Z,1.60
2019-05-01T18:29:28.524Z,1.50
2019-05-01T18:31:57.500Z,2.00
2019-05-01T18:34:26.409Z,1.90
2019-05-01T18:37:13.221Z,2.13
2019-05-01T18:39:43.664Z,2.33
2019-05-01T18:42:14.163Z,1.67
2019-05-01T18:44:47.571Z,2.33
2019-05-01T18:47:13.928Z,1.73
2019-05-01T18:49:42.762Z,2.17
2019-05-01T18:52:11.967Z,2.47
2019-05-01T18:54:40.826Z,2.37
2019-05-01T18:57:09.677Z,2.27
2019-05-01T18:59:38.586Z,2.10
2019-05-01T19:02:07.620Z,2.17
2019-05-01T19:04:36.461Z,2.27
2019-05-01T19:07:05.611Z,1.90
2019-05-01T19:09:36.892Z,2.23
2019-05-01T19:12:07.215Z,2.07
2019-05-01T19:14:36.134Z,2.90
2019-05-01T19:17:04.985Z,2.17
2019-05-01T19:19:33.808Z,2.07
2019-05-01T19:22:02.751Z,2.50
2019-05-01T19:24:32.420Z,2.10
2019-05-01T19:27:02.527Z,2.53
2019-05-01T19:29:32.102Z,1.90
2019-05-01T19:32:01.917Z,2.13
2019-05-01T19:34:30.775Z,1.93
2019-05-01T19:37:02.320Z,2.20
2019-05-01T19:39:43.027Z,2.40
2019-05-01T19:42:02.063Z,1.93
2019-05-01T19:44:30.999Z,1.87
2019-05-01T19:46:59.866Z,2.33
2019-05-01T19:49:29.712Z,2.20
2019-05-01T19:52:00.536Z,1.90
2019-05-01T19:54:30.036Z,1.80
2019-05-01T19:56:59.029Z,2.57
2019-05-01T19:59:27.918Z,2.20
2019-05-01T20:01:56.746Z,1.97
2019-05-01T20:04:25.574Z,2.20
2019-05-01T20:06:54.546Z,2.07
2019-05-01T20:09:23.620Z,1.93
2019-05-01T20:11:52.460Z,2.00
2019-05-01T20:14:21.326Z,1.97
2019-05-01T20:16:50.986Z,2.37
2019-05-01T20:19:19.930Z,1.83
2019-05-01T20:21:48.822Z,2.30
2019-05-01T20:24:19.348Z,2.20
2019-05-01T20:26:48.315Z,2.40
2019-05-01T20:29:17.795Z,2.20
2019-05-01T20:31:50.796Z,2.13
2019-05-01T20:34:18.752Z,2.60
2019-05-01T20:36:50.779Z,2.37
2019-05-01T20:39:23.734Z,2.40
2019-05-01T20:41:52.338Z,2.20
2019-05-01T20:44:24.048Z,2.87
2019-05-01T20:46:51.729Z,2.17
2019-05-01T20:49:20.559Z,2.30
2019-05-01T20:51:49.540Z,2.47
2019-05-01T20:54:18.527Z,3.03
2019-05-01T20:56:48.959Z,2.30
2019-05-01T20:59:17.829Z,1.97
2019-05-01T21:01:46.657Z,2.37
2019-05-01T21:04:27.693Z,2.77
2019-05-01T21:07:19.920Z,3.10
2019-05-01T21:09:57.310Z,2.83
2019-05-01T21:12:19.157Z,2.20
2019-05-01T21:14:49.613Z,2.27
2019-05-01T21:17:20.201Z,2.73
2019-05-01T21:19:49.038Z,3.50
2019-05-01T21:22:17.882Z,3.10
2019-05-01T21:24:46.758Z,2.63
2019-05-01T21:27:15.575Z,2.80
2019-05-01T21:29:44.763Z,4.00
2019-05-01T21:32:18.242Z,3.37
2019-05-01T21:34:45.213Z,3.73
2019-05-01T21:37:14.257Z,3.13
2019-05-01T21:39:43.658Z,3.50
2019-05-01T21:42:16.101Z,3.63
2019-05-01T21:44:43.600Z,3.53
2019-05-01T21:47:13.877Z,3.13
2019-05-01T21:49:43.376Z,3.77
2019-05-01T21:52:13.497Z,3.20
2019-05-01T21:54:42.623Z,3.70
2019-05-01T21:57:11.943Z,3.47
2019-05-01T21:59:44.824Z,3.80
2019-05-01T22:02:12.420Z,3.50
2019-05-01T22:04:41.263Z,3.10
2019-05-01T22:07:10.466Z,3.77
2019-05-01T22:09:40.077Z,3.53
2019-05-01T22:12:13.161Z,3.87
2019-05-01T22:14:47.331Z,3.80
2019-05-01T22:17:32.068Z,3.93
2019-05-01T22:20:00.689Z,3.97
2019-05-01T22:22:31.087Z,3.67
2019-05-01T22:25:16.492Z,3.50
2019-05-01T22:27:46.930Z,3.70
2019-05-01T22:30:20.735Z,3.93
2019-05-01T22:32:52.203Z,4.23
2019-05-01T22:35:22.721Z,3.67
2019-05-01T22:37:51.731Z,3.90
2019-05-01T22:40:31.018Z,4.23
2019-05-01T22:43:01.368Z,3.93
2019-05-01T22:45:30.251Z,3.80
2019-05-01T22:47:59.133Z,3.63
2019-05-01T22:50:28.072Z,4.03
2019-05-01T22:52:56.939Z,4.43
2019-05-01T22:55:26.763Z,3.97
2019-05-01T22:57:55.552Z,4.17
2019-05-01T23:00:28.701Z,4.10
2019-05-01T23:03:00.124Z,4.73
2019-05-01T23:05:29.707Z,4.60
2019-05-01T23:07:58.558Z,4.43
2019-05-01T23:10:27.484Z,4.30
2019-05-01T23:12:56.352Z,4.33
2019-05-01T23:15:26.716Z,4.93
2019-05-01T23:17:55.623Z,4.20
2019-05-01T23:20:24.718Z,4.57
2019-05-01T23:22:53.602Z,4.40
2019-05-01T23:25:22.525Z,4.17
2019-05-01T23:27:51.391Z,4.30
2019-05-01T23:30:22.041Z,4.63
2019-05-01T23:32:50.943Z,4.23
2019-05-01T23:35:19.802Z,4.57
2019-05-01T23:37:48.612Z,4.37
2019-05-01T23:40:17.529Z,4.70
2019-05-01T23:42:52.367Z,4.57
2019-05-01T23:45:17.185Z,4.50
2019-05-01T23:47:46.105Z,5.37
2019-05-01T23:50:15.228Z,5.43
2019-05-01T23:52:44.070Z,5.33
2019-05-01T23:55:13.010Z,4.43
2019-05-01T23:57:41.849Z,5.03
